createdAt,value
2022-08-08T00:00:55.094Z,16.95
2022-08-08T00:02:04.024Z,17.04
2022-08-08T00:03:20.281Z,17.03
2022-08-08T00:04:57.842Z,17.16
2022-08-08T00:06:03.496Z,17.21
2022-08-08T00:06:56.786Z,17.20
2022-08-08T00:07:53.894Z,16.90
2022-08-08T00:08:57.767Z,17.01
2022-08-08T00:10:06.846Z,16.79
2022-08-08T00:11:15.773Z,16.88
2022-08-08T00:12:07.599Z,16.94
2022-08-08T00:14:15.128Z,16.95
2022-08-08T00:15:24.188Z,17.07
2022-08-08T00:17:47.898Z,16.90
2022-08-08T00:19:40.790Z,16.93
2022-08-08T00:20:52.765Z,16.95
2022-08-08T00:21:54.756Z,16.93
2022-08-08T00:23:00.749Z,16.91
2022-08-08T00:24:03.776Z,16.91
2022-08-08T00:25:05.811Z,16.87
2022-08-08T00:26:07.758Z,16.65
2022-08-08T00:27:10.756Z,16.76
2022-08-08T00:28:33.974Z,16.87
2022-08-08T00:29:46.451Z,16.87
2022-08-08T00:30:27.773Z,16.88
2022-08-08T00:32:21.474Z,16.82
2022-08-08T00:32:35.370Z,16.69
2022-08-08T00:33:24.816Z,16.76
2022-08-08T00:34:58.729Z,16.69
2022-08-08T00:36:15.050Z,16.87
2022-08-08T00:37:47.124Z,16.79
2022-08-08T00:38:59.855Z,16.68
2022-08-08T00:41:09.294Z,16.63
2022-08-08T00:42:33.390Z,16.60
2022-08-08T00:43:59.246Z,16.63
2022-08-08T00:45:21.789Z,16.60
2022-08-08T00:46:56.982Z,16.65
2022-08-08T00:48:29.340Z,16.64
2022-08-08T00:50:17.826Z,16.60
2022-08-08T00:51:38.999Z,16.53
2022-08-08T00:52:39.109Z,16.54
2022-08-08T00:53:57.178Z,16.55
2022-08-08T00:54:58.799Z,16.49
2022-08-08T00:56:03.708Z,16.48
2022-08-08T00:56:52.946Z,16.35
2022-08-08T00:58:32.730Z,16.29
2022-08-08T00:59:43.719Z,16.25
2022-08-08T01:00:42.713Z,16.20
2022-08-08T01:04:01.353Z,16.17
2022-08-08T01:04:02.645Z,16.19
2022-08-08T01:05:41.794Z,16.04
2022-08-08T01:07:54.085Z,16.09
2022-08-08T01:09:36.138Z,16.10
2022-08-08T01:11:21.743Z,16.26
2022-08-08T01:13:03.726Z,16.32
2022-08-08T01:14:57.197Z,16.29
2022-08-08T01:16:30.750Z,16.25
2022-08-08T01:17:51.405Z,16.25
2022-08-08T01:19:25.362Z,16.18
2022-08-08T01:21:26.330Z,16.28
2022-08-08T01:24:02.477Z,16.20
2022-08-08T01:24:44.010Z,16.27
2022-08-08T01:25:40.778Z,16.26
2022-08-08T01:27:07.116Z,16.27
2022-08-08T01:28:05.703Z,16.18
2022-08-08T01:29:23.880Z,16.12
2022-08-08T01:30:03.792Z,15.99
2022-08-08T01:32:14.650Z,15.98
2022-08-08T01:33:33.629Z,15.91
2022-08-08T01:34:52.715Z,15.99
2022-08-08T01:35:40.486Z,15.95
2022-08-08T01:36:52.703Z,15.89
2022-08-08T01:37:56.995Z,16.06
2022-08-08T01:39:23.169Z,16.05
2022-08-08T01:40:34.722Z,15.94
2022-08-08T01:41:44.670Z,15.95
2022-08-08T01:42:49.695Z,15.97
2022-08-08T01:44:09.680Z,15.96
2022-08-08T01:45:33.697Z,16.07
2022-08-08T01:46:47.671Z,16.05
2022-08-08T01:48:13.710Z,16.07
2022-08-08T01:49:22.966Z,16.16
2022-08-08T01:51:03.706Z,16.15
2022-08-08T01:54:33.740Z,16.16
2022-08-08T01:55:16.308Z,16.09
2022-08-08T01:56:30.302Z,16.03
2022-08-08T01:58:04.607Z,16.02
2022-08-08T01:58:46.472Z,16.03
2022-08-08T02:00:01.761Z,16.04
2022-08-08T02:01:21.781Z,15.95
2022-08-08T02:02:41.356Z,16.04
2022-08-08T02:03:54.895Z,16.03
2022-08-08T02:04:57.652Z,15.91
2022-08-08T02:05:59.075Z,15.80
2022-08-08T02:07:08.661Z,15.74
2022-08-08T02:08:34.021Z,15.83
2022-08-08T02:10:04.035Z,15.64
2022-08-08T02:11:58.695Z,15.70
2022-08-08T02:13:04.681Z,15.77
2022-08-08T02:14:22.677Z,15.71
2022-08-08T02:15:19.736Z,15.71
2022-08-08T02:16:34.719Z,15.59
2022-08-08T02:17:26.843Z,15.57
2022-08-08T02:18:41.654Z,15.61
2022-08-08T02:19:57.056Z,15.51
2022-08-08T02:21:40.658Z,15.63
2022-08-08T02:23:31.731Z,15.71
2022-08-08T02:24:44.332Z,15.65
2022-08-08T02:25:58.966Z,15.67
2022-08-08T02:27:24.633Z,15.43
2022-08-08T02:28:34.964Z,15.67
2022-08-08T02:29:52.792Z,15.52
2022-08-08T02:30:58.197Z,15.69
2022-08-08T02:32:40.632Z,15.61
2022-08-08T02:34:08.028Z,15.77
2022-08-08T02:36:03.704Z,15.80
2022-08-08T02:37:52.664Z,15.74
2022-08-08T02:39:01.096Z,15.63
2022-08-08T02:40:45.175Z,15.63
2022-08-08T02:42:38.296Z,15.69
2022-08-08T02:44:39.009Z,15.60
2022-08-08T02:46:36.640Z,15.63
2022-08-08T02:48:40.898Z,15.57
2022-08-08T02:50:12.502Z,15.44
2022-08-08T02:51:55.430Z,15.51
2022-08-08T02:52:53.009Z,15.33
2022-08-08T02:54:15.637Z,15.46
2022-08-08T02:55:20.783Z,15.59
2022-08-08T02:56:14.616Z,15.66
2022-08-08T02:57:40.643Z,15.71
2022-08-08T02:58:52.675Z,15.65
2022-08-08T03:00:32.095Z,15.50
2022-08-08T03:01:53.768Z,15.43
2022-08-08T03:03:16.709Z,15.44
2022-08-08T03:05:17.696Z,15.51
2022-08-08T03:06:24.105Z,15.51
2022-08-08T03:07:41.835Z,15.60
2022-08-08T03:09:07.637Z,15.59
2022-08-08T03:10:44.490Z,15.51
2022-08-08T03:12:13.944Z,15.48
2022-08-08T03:15:54.097Z,15.46
2022-08-08T03:16:00.661Z,15.47
2022-08-08T03:16:35.505Z,15.48
2022-08-08T03:17:59.799Z,15.39
2022-08-08T03:19:07.667Z,15.42
2022-08-08T03:20:19.650Z,15.28
2022-08-08T03:21:09.494Z,15.31
2022-08-08T03:21:58.704Z,15.27
2022-08-08T03:22:40.954Z,15.23
2022-08-08T03:23:23.835Z,15.14
2022-08-08T03:24:11.672Z,15.17
2022-08-08T03:24:58.598Z,15.04
2022-08-08T03:25:40.605Z,15.08
2022-08-08T03:26:14.677Z,15.07
2022-08-08T03:27:13.600Z,15.08
2022-08-08T03:28:06.601Z,15.13
2022-08-08T03:29:17.072Z,15.20
2022-08-08T03:30:10.626Z,15.20
2022-08-08T03:31:22.558Z,15.23
2022-08-08T03:32:14.417Z,15.25
2022-08-08T03:33:07.880Z,15.25
2022-08-08T03:34:06.594Z,15.10
2022-08-08T03:34:47.661Z,15.07
2022-08-08T03:35:24.269Z,15.01
2022-08-08T03:36:10.358Z,15.01
2022-08-08T03:36:49.674Z,15.06
2022-08-08T03:38:53.719Z,15.17
2022-08-08T03:38:57.250Z,15.13
2022-08-08T03:39:22.672Z,15.33
2022-08-08T03:40:28.858Z,15.34
2022-08-08T03:41:08.875Z,15.33
2022-08-08T03:42:27.630Z,15.47
2022-08-08T03:43:16.607Z,15.53
2022-08-08T03:44:10.561Z,15.45
2022-08-08T03:44:47.899Z,15.34
2022-08-08T03:46:05.675Z,15.30
2022-08-08T03:46:49.861Z,15.24
2022-08-08T03:47:45.233Z,15.18
2022-08-08T03:48:21.322Z,15.18
2022-08-08T03:50:00.464Z,15.19
2022-08-08T03:50:26.146Z,15.26
2022-08-08T03:50:59.634Z,15.25
2022-08-08T03:51:50.411Z,15.32
2022-08-08T03:52:34.084Z,15.30
2022-08-08T03:53:23.930Z,15.28
2022-08-08T03:54:15.738Z,15.20
2022-08-08T03:55:20.121Z,15.25
2022-08-08T03:56:31.683Z,15.20
2022-08-08T03:58:31.400Z,15.30
2022-08-08T03:58:35.043Z,15.26
2022-08-08T03:59:22.727Z,15.28
2022-08-08T04:00:07.635Z,15.33
2022-08-08T04:01:01.878Z,15.35
2022-08-08T04:02:31.621Z,15.38
2022-08-08T04:03:11.223Z,15.31
2022-08-08T04:03:58.835Z,15.30
2022-08-08T04:04:33.674Z,15.34
2022-08-08T04:05:10.156Z,15.41
2022-08-08T04:05:50.562Z,15.42
2022-08-08T04:06:24.665Z,15.23
2022-08-08T04:07:04.342Z,15.30
2022-08-08T04:07:47.565Z,15.18
2022-08-08T04:08:33.226Z,15.11
2022-08-08T04:09:15.578Z,15.18
2022-08-08T04:10:05.796Z,15.28
2022-08-08T04:10:46.546Z,15.35
2022-08-08T04:11:32.910Z,15.29
2022-08-08T04:12:28.632Z,15.43
2022-08-08T04:13:17.971Z,15.45
2022-08-08T04:14:03.842Z,15.50
2022-08-08T04:15:01.577Z,15.52
2022-08-08T04:15:38.844Z,15.56
2022-08-08T04:16:13.268Z,15.51
2022-08-08T04:16:58.550Z,15.54
2022-08-08T04:17:46.756Z,15.54
2022-08-08T04:18:26.338Z,15.41
2022-08-08T04:19:06.554Z,15.39
2022-08-08T04:19:58.707Z,15.37
2022-08-08T04:20:39.562Z,15.37
2022-08-08T04:21:23.129Z,15.39
2022-08-08T04:22:03.546Z,15.43
2022-08-08T04:22:43.606Z,15.37
2022-08-08T04:23:24.539Z,15.37
2022-08-08T04:24:28.140Z,15.35
2022-08-08T04:25:15.241Z,15.32
2022-08-08T04:26:06.951Z,15.27
2022-08-08T04:26:57.585Z,15.30
2022-08-08T04:28:34.965Z,15.17
2022-08-08T04:28:41.687Z,15.14
2022-08-08T04:29:33.366Z,15.20
2022-08-08T04:30:18.365Z,15.11
2022-08-08T04:31:07.552Z,15.22
2022-08-08T04:31:58.257Z,15.22
2022-08-08T04:32:49.809Z,15.14
2022-08-08T04:33:44.538Z,15.17
2022-08-08T04:34:43.022Z,15.19
2022-08-08T04:35:51.183Z,15.34
2022-08-08T04:36:33.557Z,15.37
2022-08-08T04:37:14.603Z,15.46
2022-08-08T04:37:54.546Z,15.51
2022-08-08T04:38:34.748Z,15.39
2022-08-08T04:40:03.668Z,15.35
2022-08-08T04:40:17.870Z,15.32
2022-08-08T04:40:57.579Z,15.23
2022-08-08T04:41:44.552Z,15.40
2022-08-08T04:42:46.697Z,15.40
2022-08-08T04:43:57.049Z,15.53
2022-08-08T04:44:51.545Z,15.54
2022-08-08T04:45:46.531Z,15.64
2022-08-08T04:46:40.524Z,15.73
2022-08-08T04:47:24.499Z,15.79
2022-08-08T04:48:05.594Z,15.86
2022-08-08T04:48:45.510Z,15.92
2022-08-08T04:49:58.526Z,15.95
2022-08-08T04:50:34.265Z,15.90
2022-08-08T04:51:28.012Z,15.97
2022-08-08T04:52:19.544Z,15.95
2022-08-08T04:53:13.877Z,15.86
2022-08-08T04:54:40.109Z,15.92
2022-08-08T04:55:06.645Z,15.90
2022-08-08T04:55:55.353Z,16.00
2022-08-08T04:56:44.498Z,15.97
2022-08-08T04:57:18.594Z,15.93
2022-08-08T04:58:10.854Z,16.07
2022-08-08T04:58:46.162Z,16.13
2022-08-08T04:59:41.969Z,16.14
2022-08-08T05:00:19.624Z,16.20
2022-08-08T05:01:11.004Z,16.15
2022-08-08T05:01:48.357Z,16.26
2022-08-08T05:02:35.751Z,16.23
2022-08-08T05:03:18.801Z,16.30
2022-08-08T05:04:30.529Z,16.34
2022-08-08T05:05:45.311Z,16.28
2022-08-08T05:06:39.071Z,16.25
2022-08-08T05:07:42.101Z,16.26
2022-08-08T05:08:36.585Z,16.41
2022-08-08T05:09:30.489Z,16.47
2022-08-08T05:10:30.536Z,16.41
2022-08-08T05:11:26.063Z,16.62
2022-08-08T05:12:21.355Z,16.66
2022-08-08T05:13:23.491Z,16.70
2022-08-08T05:14:06.530Z,16.61
2022-08-08T05:14:47.563Z,16.72
2022-08-08T05:16:47.502Z,16.66
2022-08-08T05:16:52.128Z,16.79
2022-08-08T05:17:54.003Z,16.82
2022-08-08T05:18:29.586Z,16.85
2022-08-08T05:19:09.516Z,16.86
2022-08-08T05:20:15.142Z,16.89
2022-08-08T05:20:56.487Z,16.98
2022-08-08T05:21:43.584Z,17.03
2022-08-08T05:22:36.488Z,16.97
2022-08-08T05:23:16.765Z,16.99
2022-08-08T05:24:08.538Z,16.93
2022-08-08T05:24:49.632Z,16.96
2022-08-08T05:25:25.684Z,16.94
2022-08-08T05:26:29.490Z,17.01
2022-08-08T05:27:03.698Z,17.03
2022-08-08T05:27:50.483Z,17.10
2022-08-08T05:28:48.092Z,17.12
2022-08-08T05:29:35.815Z,17.19
2022-08-08T05:30:28.242Z,17.16
2022-08-08T05:32:04.690Z,17.27
2022-08-08T05:32:36.951Z,17.33
2022-08-08T05:33:44.078Z,17.40
2022-08-08T05:34:54.482Z,17.52
2022-08-08T05:35:47.503Z,17.55
2022-08-08T05:36:32.557Z,17.46
2022-08-08T05:37:28.444Z,17.45
2022-08-08T05:38:30.421Z,17.42
2022-08-08T05:39:20.510Z,17.50
2022-08-08T05:39:59.573Z,17.46
2022-08-08T05:40:58.253Z,17.45
2022-08-08T05:41:33.547Z,17.52
2022-08-08T05:42:51.488Z,17.54
2022-08-08T05:43:40.110Z,17.62
2022-08-08T05:44:52.487Z,17.65
2022-08-08T05:45:41.450Z,17.74
2022-08-08T05:46:24.431Z,17.78
2022-08-08T05:47:05.559Z,17.87
2022-08-08T05:48:00.597Z,17.83
2022-08-08T05:48:41.936Z,17.95
2022-08-08T05:49:23.495Z,17.93
2022-08-08T05:50:07.608Z,17.87
2022-08-08T05:50:49.475Z,17.89
2022-08-08T05:51:48.102Z,17.96
2022-08-08T05:52:35.940Z,17.91
2022-08-08T05:54:25.543Z,17.90
2022-08-08T05:54:27.364Z,18.02
2022-08-08T05:55:27.451Z,18.02
2022-08-08T05:56:21.586Z,17.89
2022-08-08T05:57:04.738Z,17.93
2022-08-08T05:58:05.312Z,17.85
2022-08-08T05:58:57.007Z,17.91
2022-08-08T05:59:59.793Z,18.00
2022-08-08T06:00:44.320Z,18.04
2022-08-08T06:01:55.979Z,18.08
2022-08-08T06:02:53.592Z,18.05
2022-08-08T06:03:35.640Z,18.12
2022-08-08T06:04:23.788Z,18.18
2022-08-08T06:05:24.269Z,18.23
2022-08-08T06:06:12.463Z,18.29
2022-08-08T06:07:04.516Z,18.32
2022-08-08T06:07:48.444Z,18.30
2022-08-08T06:08:53.365Z,18.39
2022-08-08T06:09:59.881Z,18.48
2022-08-08T06:10:41.463Z,18.56
2022-08-08T06:11:16.633Z,18.56
2022-08-08T06:12:07.449Z,18.62
2022-08-08T06:12:42.509Z,18.63
2022-08-08T06:13:35.583Z,18.70
2022-08-08T06:14:23.480Z,18.70
2022-08-08T06:15:22.461Z,18.75
2022-08-08T06:16:30.382Z,18.83
2022-08-08T06:17:50.530Z,18.81
2022-08-08T06:18:40.490Z,18.86
2022-08-08T06:19:35.407Z,18.94
2022-08-08T06:20:32.432Z,18.93
2022-08-08T06:21:48.419Z,19.02
2022-08-08T06:22:42.453Z,19.13
2022-08-08T06:23:52.617Z,19.21
2022-08-08T06:24:51.457Z,19.28
2022-08-08T06:26:35.944Z,19.32
2022-08-08T06:27:23.515Z,19.36
2022-08-08T06:28:30.455Z,19.41
2022-08-08T06:29:56.819Z,19.51
2022-08-08T06:30:31.458Z,19.56
2022-08-08T06:31:15.495Z,19.56
2022-08-08T06:32:10.098Z,19.56
2022-08-08T06:33:01.340Z,19.65
2022-08-08T06:34:26.355Z,19.72
2022-08-08T06:36:07.432Z,19.71
2022-08-08T06:36:13.454Z,19.79
2022-08-08T06:36:57.848Z,19.85
2022-08-08T06:37:45.467Z,19.89
2022-08-08T06:38:35.935Z,19.95
2022-08-08T06:39:23.456Z,19.96
2022-08-08T06:40:21.433Z,19.92
2022-08-08T06:41:22.448Z,19.93
2022-08-08T06:42:16.449Z,19.99
2022-08-08T06:43:30.666Z,20.05
2022-08-08T06:44:31.438Z,20.15
2022-08-08T06:45:27.436Z,20.19
2022-08-08T06:46:23.877Z,20.22
2022-08-08T06:47:05.418Z,20.20
2022-08-08T06:47:52.410Z,20.27
2022-08-08T06:48:42.388Z,20.30
2022-08-08T06:49:56.723Z,20.30
2022-08-08T06:50:32.323Z,20.34
2022-08-08T06:51:14.527Z,20.40
2022-08-08T06:51:57.920Z,20.39
2022-08-08T06:52:42.993Z,20.45
2022-08-08T06:53:39.783Z,20.46
2022-08-08T06:54:20.481Z,20.46
2022-08-08T06:55:02.460Z,20.40
2022-08-08T06:55:47.316Z,20.46
2022-08-08T06:56:47.028Z,20.49
2022-08-08T06:57:44.483Z,20.52
2022-08-08T06:58:30.958Z,20.49
2022-08-08T06:59:20.415Z,20.54
2022-08-08T07:00:11.536Z,20.54
2022-08-08T07:01:00.429Z,20.54
2022-08-08T07:02:26.988Z,20.58
2022-08-08T07:03:00.544Z,20.63
2022-08-08T07:04:37.969Z,20.63
2022-08-08T07:05:24.963Z,20.68
2022-08-08T07:06:05.559Z,20.71
2022-08-08T07:07:10.464Z,20.75
2022-08-08T07:08:24.454Z,20.80
2022-08-08T07:09:41.709Z,20.81
2022-08-08T07:10:46.024Z,20.94
2022-08-08T07:11:46.221Z,20.85
2022-08-08T07:12:55.393Z,20.92
2022-08-08T07:14:00.576Z,21.00
2022-08-08T07:15:23.376Z,20.99
2022-08-08T07:16:34.481Z,21.12
2022-08-08T07:17:24.558Z,21.12
2022-08-08T07:19:14.428Z,21.17
2022-08-08T07:20:05.628Z,21.14
2022-08-08T07:20:55.406Z,21.25
2022-08-08T07:21:32.077Z,21.26
2022-08-08T07:22:24.809Z,21.33
2022-08-08T07:23:23.852Z,21.31
2022-08-08T07:24:35.408Z,21.43
2022-08-08T07:25:17.076Z,21.39
2022-08-08T07:26:10.391Z,21.47
2022-08-08T07:26:50.883Z,21.47
2022-08-08T07:28:02.008Z,21.50
2022-08-08T07:28:36.486Z,21.52
2022-08-08T07:30:02.378Z,21.51
2022-08-08T07:30:27.435Z,21.40
2022-08-08T07:31:21.508Z,21.45
2022-08-08T07:32:22.279Z,21.44
2022-08-08T07:33:21.385Z,21.45
2022-08-08T07:34:19.955Z,21.50
2022-08-08T07:35:01.552Z,21.48
2022-08-08T07:35:44.430Z,21.58
2022-08-08T07:36:19.723Z,21.57
2022-08-08T07:37:13.385Z,21.57
2022-08-08T07:38:04.830Z,21.54
2022-08-08T07:38:57.365Z,21.67
2022-08-08T07:39:45.810Z,21.54
2022-08-08T07:40:40.105Z,21.63
2022-08-08T07:41:25.003Z,21.53
2022-08-08T07:42:20.405Z,21.64
2022-08-08T07:43:37.291Z,21.70
2022-08-08T07:44:37.049Z,21.72
2022-08-08T07:45:51.469Z,21.86
2022-08-08T07:46:43.437Z,21.95
2022-08-08T07:47:17.436Z,21.95
2022-08-08T07:48:10.441Z,21.93
2022-08-08T07:48:46.445Z,21.94
2022-08-08T07:49:33.375Z,21.99
2022-08-08T07:50:08.496Z,22.05
2022-08-08T07:51:01.528Z,22.00
2022-08-08T07:51:53.187Z,22.11
2022-08-08T07:52:34.433Z,22.08
2022-08-08T07:54:01.870Z,22.13
2022-08-08T07:54:56.377Z,22.12
2022-08-08T07:55:38.440Z,22.18
2022-08-08T07:56:36.108Z,22.16
2022-08-08T07:57:48.175Z,22.01
2022-08-08T07:58:56.367Z,22.24
2022-08-08T08:00:18.380Z,22.25
2022-08-08T08:01:27.194Z,22.26
2022-08-08T08:03:05.394Z,22.32
2022-08-08T08:04:16.369Z,22.22
2022-08-08T08:05:15.687Z,22.14
2022-08-08T08:06:10.374Z,22.25
2022-08-08T08:07:04.381Z,22.32
2022-08-08T08:08:03.361Z,22.31
2022-08-08T08:08:58.382Z,22.26
2022-08-08T08:09:44.454Z,22.32
2022-08-08T08:10:30.021Z,22.33
2022-08-08T08:11:38.138Z,22.33
2022-08-08T08:12:31.564Z,22.33
2022-08-08T08:14:09.908Z,22.45
2022-08-08T08:15:15.217Z,22.51
2022-08-08T08:16:23.434Z,22.51
2022-08-08T08:17:17.335Z,22.55
2022-08-08T08:18:14.368Z,22.67
2022-08-08T08:19:16.421Z,22.57
2022-08-08T08:20:13.355Z,22.59
2022-08-08T08:21:13.390Z,22.59
2022-08-08T08:22:12.478Z,22.62
2022-08-08T08:23:09.338Z,22.61
2022-08-08T08:24:03.364Z,22.68
2022-08-08T08:24:46.493Z,22.66
2022-08-08T08:25:43.702Z,22.78
2022-08-08T08:26:28.579Z,22.76
2022-08-08T08:27:09.561Z,22.68
2022-08-08T08:27:50.352Z,22.70
2022-08-08T08:28:32.801Z,22.79
2022-08-08T08:29:16.625Z,22.77
2022-08-08T08:29:59.402Z,22.78
2022-08-08T08:30:35.369Z,22.67
2022-08-08T08:31:22.345Z,22.75
2022-08-08T08:31:58.295Z,22.84
2022-08-08T08:32:51.798Z,22.82
2022-08-08T08:33:26.474Z,22.87
2022-08-08T08:34:13.363Z,22.86
2022-08-08T08:34:50.129Z,22.87
2022-08-08T08:36:18.498Z,22.87
2022-08-08T08:36:31.395Z,22.89
2022-08-08T08:37:12.324Z,22.90
2022-08-08T08:38:16.218Z,22.93
2022-08-08T08:38:57.336Z,23.01
2022-08-08T08:40:00.440Z,22.96
2022-08-08T08:40:38.403Z,23.00
2022-08-08T08:41:23.914Z,22.85
2022-08-08T08:42:06.342Z,22.82
2022-08-08T08:42:49.433Z,22.84
2022-08-08T08:43:32.316Z,22.84
2022-08-08T08:44:15.491Z,22.86
2022-08-08T08:44:56.345Z,22.91
2022-08-08T08:45:45.367Z,22.79
2022-08-08T08:46:40.332Z,22.95
2022-08-08T08:47:43.885Z,22.94
2022-08-08T08:48:41.952Z,22.98
2022-08-08T08:49:43.342Z,22.92
2022-08-08T08:50:40.854Z,22.93
2022-08-08T08:51:23.335Z,22.96
2022-08-08T08:52:06.908Z,23.00
2022-08-08T08:52:59.934Z,23.01
2022-08-08T08:53:56.446Z,23.01
2022-08-08T08:54:42.321Z,23.03
2022-08-08T08:55:24.402Z,23.12
2022-08-08T08:56:10.317Z,23.14
2022-08-08T08:56:52.361Z,23.17
2022-08-08T08:57:26.398Z,23.15
2022-08-08T08:58:15.338Z,23.21
2022-08-08T08:58:51.436Z,23.15
2022-08-08T09:00:01.789Z,23.21
2022-08-08T09:01:02.937Z,23.19
2022-08-08T09:01:45.702Z,23.00
2022-08-08T09:02:34.349Z,23.07
2022-08-08T09:03:31.492Z,23.12
2022-08-08T09:04:50.266Z,23.21
2022-08-08T09:05:54.836Z,23.24
2022-08-08T09:06:55.315Z,23.28
2022-08-08T09:07:52.341Z,23.20
2022-08-08T09:09:39.701Z,23.37
2022-08-08T09:10:43.297Z,23.46
2022-08-08T09:11:46.975Z,23.53
2022-08-08T09:12:42.316Z,23.59
2022-08-08T09:13:28.210Z,23.56
2022-08-08T09:14:10.467Z,23.60
2022-08-08T09:14:51.540Z,23.48
2022-08-08T09:15:41.669Z,23.43
2022-08-08T09:16:24.300Z,23.35
2022-08-08T09:17:14.225Z,23.45
2022-08-08T09:17:58.596Z,23.41
2022-08-08T09:18:41.394Z,23.44
2022-08-08T09:19:25.297Z,23.54
2022-08-08T09:21:57.488Z,23.62
2022-08-08T09:22:02.790Z,23.65
2022-08-08T09:22:29.311Z,23.68
2022-08-08T09:23:03.435Z,23.73
2022-08-08T09:23:50.386Z,23.74
2022-08-08T09:24:24.425Z,23.74
2022-08-08T09:25:15.079Z,23.82
2022-08-08T09:26:12.538Z,23.85
2022-08-08T09:27:15.056Z,23.86
2022-08-08T09:28:02.504Z,23.96
2022-08-08T09:28:47.300Z,23.91
2022-08-08T09:29:30.320Z,23.79
2022-08-08T09:30:22.240Z,23.92
2022-08-08T09:31:12.598Z,23.94
2022-08-08T09:32:14.506Z,23.97
2022-08-08T09:33:54.346Z,23.95
2022-08-08T09:34:30.567Z,24.03
2022-08-08T09:35:05.181Z,24.05
2022-08-08T09:35:49.059Z,24.08
2022-08-08T09:36:28.747Z,24.01
2022-08-08T09:37:57.519Z,23.98
2022-08-08T09:38:17.800Z,24.01
2022-08-08T09:38:59.729Z,24.02
2022-08-08T09:40:15.462Z,24.10
2022-08-08T09:40:57.689Z,24.03
2022-08-08T09:42:14.582Z,24.10
2022-08-08T09:42:51.382Z,24.13
2022-08-08T09:43:41.182Z,24.18
2022-08-08T09:44:47.706Z,24.05
2022-08-08T09:46:01.268Z,24.09
2022-08-08T09:46:36.362Z,24.11
2022-08-08T09:47:25.872Z,24.11
2022-08-08T09:48:21.991Z,24.13
2022-08-08T09:49:41.006Z,23.96
2022-08-08T09:50:04.780Z,24.06
2022-08-08T09:50:50.133Z,24.05
2022-08-08T09:51:28.358Z,24.06
2022-08-08T09:52:06.806Z,24.09
2022-08-08T09:53:02.906Z,24.18
2022-08-08T09:54:08.435Z,24.16
2022-08-08T09:54:51.197Z,24.21
2022-08-08T09:56:04.384Z,24.21
2022-08-08T09:56:34.304Z,24.23
2022-08-08T09:57:19.436Z,24.24
2022-08-08T09:58:40.807Z,24.35
2022-08-08T10:00:01.682Z,24.28
2022-08-08T10:00:53.142Z,24.41
2022-08-08T10:01:58.514Z,24.47
2022-08-08T10:02:45.081Z,24.49
2022-08-08T10:03:25.347Z,24.50
2022-08-08T10:04:02.212Z,24.43
2022-08-08T10:04:47.901Z,24.48
2022-08-08T10:05:31.314Z,24.52
2022-08-08T10:06:17.738Z,24.53
2022-08-08T10:07:00.272Z,24.58
2022-08-08T10:07:44.966Z,24.40
2022-08-08T10:08:25.292Z,24.57
2022-08-08T10:09:10.337Z,24.51
2022-08-08T10:09:59.817Z,24.49
2022-08-08T10:10:50.105Z,24.55
2022-08-08T10:12:28.273Z,24.62
2022-08-08T10:12:54.318Z,24.53
2022-08-08T10:13:38.510Z,24.56
2022-08-08T10:14:28.159Z,24.61
2022-08-08T10:15:18.612Z,24.62
2022-08-08T10:16:03.796Z,24.57
2022-08-08T10:16:49.261Z,24.60
2022-08-08T10:17:57.529Z,24.55
2022-08-08T10:18:40.310Z,24.62
2022-08-08T10:19:21.344Z,24.59
2022-08-08T10:20:08.289Z,24.62
2022-08-08T10:21:00.520Z,24.62
2022-08-08T10:21:51.017Z,24.56
2022-08-08T10:22:34.308Z,24.66
2022-08-08T10:23:41.150Z,24.67
2022-08-08T10:24:29.255Z,24.61
2022-08-08T10:25:15.897Z,24.64
2022-08-08T10:25:57.661Z,24.63
2022-08-08T10:26:56.877Z,24.61
2022-08-08T10:27:49.241Z,24.66
2022-08-08T10:28:30.361Z,24.69
2022-08-08T10:29:22.872Z,24.64
2022-08-08T10:30:16.191Z,24.74
2022-08-08T10:31:46.753Z,24.78
2022-08-08T10:32:38.312Z,24.68
2022-08-08T10:33:20.253Z,24.75
2022-08-08T10:34:18.484Z,24.83
2022-08-08T10:35:02.062Z,24.86
2022-08-08T10:36:07.970Z,24.87
2022-08-08T10:36:38.401Z,24.97
2022-08-08T10:37:14.207Z,24.98
2022-08-08T10:38:21.275Z,24.94
2022-08-08T10:38:57.323Z,24.89
2022-08-08T10:39:54.427Z,24.89
2022-08-08T10:40:38.270Z,24.93
2022-08-08T10:41:20.223Z,24.96
2022-08-08T10:42:14.994Z,24.94
2022-08-08T10:43:10.359Z,24.94
2022-08-08T10:43:51.617Z,24.96
2022-08-08T10:44:52.246Z,25.02
2022-08-08T10:45:29.738Z,25.02
2022-08-08T10:46:39.270Z,25.06
2022-08-08T10:47:15.762Z,24.99
2022-08-08T10:48:13.269Z,25.12
2022-08-08T10:48:58.345Z,25.12
2022-08-08T10:50:01.659Z,25.09
2022-08-08T10:50:39.301Z,25.12
2022-08-08T10:51:31.439Z,25.13
2022-08-08T10:52:31.134Z,25.26
2022-08-08T10:53:16.308Z,25.24
2022-08-08T10:54:01.905Z,25.22
2022-08-08T10:54:42.292Z,25.19
2022-08-08T10:55:40.968Z,25.14
2022-08-08T10:56:27.062Z,25.19
2022-08-08T10:57:14.280Z,25.25
2022-08-08T10:57:56.289Z,25.16
2022-08-08T10:58:35.408Z,25.14
2022-08-08T10:59:14.015Z,25.13
2022-08-08T11:00:06.217Z,25.23
2022-08-08T11:00:52.695Z,25.11
2022-08-08T11:01:39.284Z,25.09
2022-08-08T11:02:20.351Z,24.97
2022-08-08T11:03:08.312Z,25.09
2022-08-08T11:04:01.250Z,25.09
2022-08-08T11:05:00.312Z,25.21
2022-08-08T11:06:00.933Z,25.21
2022-08-08T11:06:50.230Z,25.20
2022-08-08T11:08:31.904Z,25.20
2022-08-08T11:08:41.967Z,25.21
2022-08-08T11:09:21.809Z,25.21
2022-08-08T11:10:09.249Z,25.22
2022-08-08T11:10:50.230Z,25.21
2022-08-08T11:11:32.571Z,25.20
2022-08-08T11:12:18.979Z,25.27
2022-08-08T11:14:07.279Z,25.22
2022-08-08T11:14:59.876Z,25.21
2022-08-08T11:15:53.134Z,25.26
2022-08-08T11:16:36.644Z,25.32
2022-08-08T11:17:58.934Z,25.24
2022-08-08T11:18:18.454Z,25.24
2022-08-08T11:19:10.792Z,25.31
2022-08-08T11:19:52.918Z,25.35
2022-08-08T11:20:42.228Z,25.28
2022-08-08T11:21:35.342Z,25.31
2022-08-08T11:22:29.065Z,25.37
2022-08-08T11:23:05.732Z,25.39
2022-08-08T11:24:01.599Z,25.43
2022-08-08T11:24:52.397Z,25.49
2022-08-08T11:25:52.191Z,25.49
2022-08-08T11:26:34.197Z,25.63
2022-08-08T11:27:23.075Z,25.59
2022-08-08T11:28:06.245Z,25.67
2022-08-08T11:28:50.114Z,25.66
2022-08-08T11:29:51.018Z,25.75
2022-08-08T11:30:36.275Z,25.77
2022-08-08T11:31:15.272Z,25.76
2022-08-08T11:31:50.390Z,25.78
2022-08-08T11:32:37.205Z,25.84
2022-08-08T11:33:12.644Z,25.82
2022-08-08T11:34:01.337Z,25.86
2022-08-08T11:35:08.242Z,25.87
2022-08-08T11:35:49.755Z,25.93
2022-08-08T11:36:28.931Z,26.02
2022-08-08T11:37:17.217Z,26.06
2022-08-08T11:38:39.021Z,26.09
2022-08-08T11:39:20.278Z,26.16
2022-08-08T11:39:57.544Z,25.99
2022-08-08T11:40:51.202Z,25.91
2022-08-08T11:41:36.251Z,25.89
2022-08-08T11:42:18.080Z,26.08
2022-08-08T11:43:08.239Z,26.13
2022-08-08T11:43:51.257Z,26.15
2022-08-08T11:44:35.208Z,26.27
2022-08-08T11:45:18.601Z,26.19
2022-08-08T11:46:11.878Z,26.24
2022-08-08T11:46:57.899Z,26.34
2022-08-08T11:48:02.494Z,26.39
2022-08-08T11:48:40.278Z,26.33
2022-08-08T11:49:22.823Z,26.36
2022-08-08T11:50:10.056Z,26.29
2022-08-08T11:50:53.188Z,26.32
2022-08-08T11:51:40.161Z,26.32
2022-08-08T11:52:18.545Z,26.30
2022-08-08T11:53:06.030Z,26.28
2022-08-08T11:53:59.086Z,26.34
2022-08-08T11:54:44.872Z,26.31
2022-08-08T11:55:28.821Z,26.38
2022-08-08T11:56:10.190Z,26.34
2022-08-08T11:56:56.632Z,26.42
2022-08-08T11:57:35.381Z,26.33
2022-08-08T11:58:25.174Z,26.28
2022-08-08T11:59:11.832Z,26.39
2022-08-08T12:00:15.210Z,26.26
2022-08-08T12:00:56.342Z,26.42
2022-08-08T12:01:47.230Z,26.42
2022-08-08T12:02:41.162Z,26.55
2022-08-08T12:03:30.723Z,26.59
2022-08-08T12:04:16.199Z,26.64
2022-08-08T12:05:13.907Z,26.78
2022-08-08T12:05:55.189Z,26.79
2022-08-08T12:06:35.623Z,26.82
2022-08-08T12:07:20.209Z,26.81
2022-08-08T12:08:04.539Z,26.89
2022-08-08T12:08:41.771Z,26.86
2022-08-08T12:09:17.083Z,26.94
2022-08-08T12:10:02.854Z,26.98
2022-08-08T12:10:57.342Z,26.87
2022-08-08T12:11:41.392Z,26.91
2022-08-08T12:12:32.379Z,26.97
2022-08-08T12:13:38.136Z,27.08
2022-08-08T12:14:29.367Z,27.10
2022-08-08T12:15:21.198Z,27.12
2022-08-08T12:15:56.980Z,27.05
2022-08-08T12:16:47.297Z,27.12
2022-08-08T12:17:37.033Z,27.01
2022-08-08T12:18:41.173Z,27.14
2022-08-08T12:19:37.777Z,27.14
2022-08-08T12:20:38.181Z,27.24
2022-08-08T12:21:59.335Z,27.34